createdAt,value
2018-10-02T00:02:27.613Z,12.13
2018-10-02T00:04:56.412Z,12.20
2018-10-02T00:07:25.096Z,12.37
2018-10-02T00:09:54.399Z,11.90
2018-10-02T00:12:28.247Z,11.77
2018-10-02T00:14:56.868Z,12.87
2018-10-02T00:17:25.458Z,12.30
2018-10-02T00:19:54.088Z,12.70
2018-10-02T00:22:22.970Z,12.90
2018-10-02T00:24:51.864Z,13.27
2018-10-02T00:27:20.438Z,12.10
2018-10-02T00:29:49.046Z,12.77
2018-10-02T00:32:17.821Z,13.50
2018-10-02T00:34:46.646Z,13.63
2018-10-02T00:37:15.284Z,13.20
2018-10-02T00:39:43.942Z,13.37
2018-10-02T00:42:12.753Z,13.57
2018-10-02T00:44:41.565Z,12.87
2018-10-02T00:47:10.164Z,13.17
2018-10-02T00:49:38.847Z,14.40
2018-10-02T00:52:07.536Z,14.20
2018-10-02T00:54:36.704Z,15.07
2018-10-02T00:57:05.612Z,14.53
2018-10-02T00:59:34.153Z,15.27
2018-10-02T01:02:02.821Z,15.20
2018-10-02T01:04:31.440Z,16.43
2018-10-02T01:07:01.218Z,14.90
2018-10-02T01:09:29.920Z,15.27
2018-10-02T01:11:58.525Z,15.30
2018-10-02T01:14:27.161Z,15.93
2018-10-02T01:16:55.715Z,15.37
2018-10-02T01:19:24.333Z,15.60
2018-10-02T01:21:52.900Z,14.87
2018-10-02T01:24:21.441Z,15.40
2018-10-02T01:26:50.117Z,14.60
2018-10-02T01:29:18.725Z,13.87
2018-10-02T01:31:47.385Z,13.23
2018-10-02T01:34:15.928Z,14.00
2018-10-02T01:36:44.548Z,13.00
2018-10-02T01:39:13.189Z,13.80
2018-10-02T01:41:41.808Z,14.13
2018-10-02T01:44:10.484Z,14.37
2018-10-02T01:46:39.108Z,13.00
2018-10-02T01:49:07.724Z,13.40
2018-10-02T01:51:36.328Z,13.90
2018-10-02T01:54:04.927Z,14.53
2018-10-02T01:56:33.443Z,14.93
2018-10-02T01:59:02.024Z,14.57
2018-10-02T02:01:30.605Z,15.43
2018-10-02T02:03:59.326Z,16.10
2018-10-02T02:06:27.911Z,16.93
2018-10-02T02:08:56.599Z,18.37
2018-10-02T02:11:25.192Z,18.63
2018-10-02T02:13:53.733Z,17.67
2018-10-02T02:16:22.323Z,17.13
2018-10-02T02:18:51.015Z,16.93
2018-10-02T02:21:19.661Z,17.67
2018-10-02T02:23:48.246Z,16.67
2018-10-02T02:26:17.444Z,18.87
2018-10-02T02:28:46.067Z,17.73
2018-10-02T02:31:14.728Z,17.73
2018-10-02T02:33:43.352Z,17.10
2018-10-02T02:36:12.188Z,12.47
2018-10-02T02:38:41.161Z,13.20
2018-10-02T02:41:09.764Z,12.60
2018-10-02T02:43:38.414Z,13.93
2018-10-02T02:46:07.488Z,17.43
2018-10-02T02:48:41.478Z,19.77
2018-10-02T02:51:15.362Z,22.80
2018-10-02T02:53:44.601Z,21.23
2018-10-02T02:56:13.200Z,22.53
2018-10-02T02:58:42.029Z,22.13
2018-10-02T03:01:10.742Z,23.57
2018-10-02T03:03:39.297Z,25.07
2018-10-02T03:06:07.864Z,25.67
2018-10-02T03:08:36.615Z,23.87
2018-10-02T03:11:05.232Z,23.03
2018-10-02T03:13:34.038Z,24.37
2018-10-02T03:16:02.647Z,24.37
2018-10-02T03:18:31.292Z,24.13
2018-10-02T03:20:59.830Z,23.60
2018-10-02T03:23:28.464Z,24.47
2018-10-02T03:25:57.672Z,24.63
2018-10-02T03:28:26.305Z,24.17
2018-10-02T03:30:54.865Z,23.87
2018-10-02T03:33:23.444Z,22.27
2018-10-02T03:35:58.437Z,21.40
2018-10-02T03:38:27.020Z,22.23
2018-10-02T03:40:55.634Z,21.63
2018-10-02T03:43:24.481Z,20.53
2018-10-02T03:45:53.606Z,21.83
2018-10-02T03:48:22.297Z,20.27
2018-10-02T03:50:50.886Z,20.67
2018-10-02T03:53:19.941Z,20.43
2018-10-02T03:55:48.702Z,19.90
2018-10-02T03:58:17.322Z,19.23
2018-10-02T04:00:45.907Z,18.97
2018-10-02T04:03:15.060Z,19.10
2018-10-02T04:05:43.749Z,18.30
2018-10-02T04:08:12.779Z,18.73
2018-10-02T04:10:41.704Z,17.93
2018-10-02T04:13:10.320Z,20.17
2018-10-02T04:15:38.831Z,18.37
2018-10-02T04:18:07.381Z,18.53
2018-10-02T04:20:35.910Z,18.20
2018-10-02T04:23:04.482Z,19.27
2018-10-02T04:25:33.064Z,18.90
2018-10-02T04:28:01.786Z,17.47
2018-10-02T04:30:30.252Z,17.00
2018-10-02T04:32:58.791Z,19.23
2018-10-02T04:35:27.357Z,17.60
2018-10-02T04:37:55.950Z,18.23
2018-10-02T04:40:24.515Z,18.77
2018-10-02T04:42:53.067Z,19.20
2018-10-02T04:45:22.667Z,19.50
2018-10-02T04:47:54.051Z,19.20
2018-10-02T04:50:23.882Z,18.80
2018-10-02T04:52:52.728Z,19.53
2018-10-02T04:55:21.455Z,19.77
2018-10-02T04:57:50.017Z,18.90
2018-10-02T05:00:19.462Z,19.50
2018-10-02T05:02:48.019Z,18.87
2018-10-02T05:05:17.393Z,18.17
2018-10-02T05:07:46.022Z,17.00
2018-10-02T05:10:14.646Z,16.90
2018-10-02T05:12:43.907Z,17.07
2018-10-02T05:15:13.055Z,16.13
2018-10-02T05:17:41.752Z,16.63
2018-10-02T05:20:10.470Z,16.67
2018-10-02T05:22:39.018Z,17.10
2018-10-02T05:25:07.686Z,15.83
2018-10-02T05:27:36.361Z,14.87
2018-10-02T05:30:05.109Z,15.07
2018-10-02T05:32:34.378Z,16.40
2018-10-02T05:35:03.720Z,16.80
2018-10-02T05:37:32.259Z,17.00
2018-10-02T05:40:00.806Z,16.20
2018-10-02T05:42:29.454Z,16.30
2018-10-02T05:44:58.009Z,16.53
2018-10-02T05:47:26.614Z,17.40
2018-10-02T05:49:55.177Z,17.73
2018-10-02T05:52:23.711Z,16.17
2018-10-02T05:54:52.338Z,16.93
2018-10-02T05:57:20.948Z,15.67
2018-10-02T05:59:49.631Z,16.97
2018-10-02T06:02:20.432Z,16.13
2018-10-02T06:04:49.021Z,14.80
2018-10-02T06:07:17.661Z,15.10
2018-10-02T06:09:47.067Z,14.60
2018-10-02T06:12:15.693Z,14.50
2018-10-02T06:14:44.847Z,14.23
2018-10-02T06:17:13.483Z,13.77
2018-10-02T06:19:42.262Z,13.60
2018-10-02T06:22:10.897Z,14.43
2018-10-02T06:24:40.100Z,13.70
2018-10-02T06:27:08.667Z,13.73
2018-10-02T06:29:37.316Z,14.10
2018-10-02T06:32:06.725Z,13.60
2018-10-02T06:34:35.596Z,13.23
2018-10-02T06:37:04.245Z,15.13
2018-10-02T06:39:33.874Z,15.67
2018-10-02T06:42:02.946Z,13.73
2018-10-02T06:44:33.015Z,13.80
2018-10-02T06:47:01.557Z,13.07
2018-10-02T06:49:30.248Z,14.13
2018-10-02T06:51:58.922Z,13.27
2018-10-02T06:54:27.985Z,13.63
2018-10-02T06:56:57.370Z,11.70
2018-10-02T06:59:26.108Z,15.28
2018-10-02T07:01:54.740Z,13.80
2018-10-02T07:04:23.352Z,13.30
2018-10-02T07:06:52.147Z,12.60
2018-10-02T07:09:20.780Z,13.83
2018-10-02T07:11:49.428Z,13.43
2018-10-02T07:14:17.978Z,13.03
2018-10-02T07:16:46.600Z,14.33
2018-10-02T07:19:15.258Z,13.80
2018-10-02T07:21:43.958Z,10.80
2018-10-02T07:24:12.523Z,10.03
2018-10-02T07:26:41.357Z,11.07
2018-10-02T07:29:10.039Z,10.70
2018-10-02T07:31:38.682Z,11.17
2018-10-02T07:34:07.326Z,11.50
2018-10-02T07:36:37.561Z,10.27
2018-10-02T07:39:11.663Z,8.77
2018-10-02T07:41:44.520Z,8.37
2018-10-02T07:44:13.236Z,10.33
2018-10-02T07:46:42.549Z,8.77
2018-10-02T07:49:11.138Z,8.83
2018-10-02T07:51:39.843Z,8.40
2018-10-02T07:54:08.503Z,9.03
2018-10-02T07:56:37.198Z,9.93
2018-10-02T07:59:05.728Z,9.83
2018-10-02T08:01:34.445Z,9.23
2018-10-02T08:04:03.038Z,10.97
2018-10-02T08:06:31.677Z,9.93
2018-10-02T08:09:00.305Z,9.27
2018-10-02T08:11:29.033Z,10.97
2018-10-02T08:13:57.525Z,10.00
2018-10-02T08:16:26.139Z,9.80
2018-10-02T08:18:54.653Z,9.40
2018-10-02T08:21:23.249Z,9.77
2018-10-02T08:23:51.834Z,9.53
2018-10-02T08:26:20.410Z,8.80
2018-10-02T08:28:49.101Z,8.37
2018-10-02T08:31:17.711Z,7.70
2018-10-02T08:33:46.834Z,8.43
2018-10-02T08:36:15.456Z,8.73
2018-10-02T08:38:44.031Z,9.23
2018-10-02T08:41:19.366Z,8.43
2018-10-02T08:43:48.048Z,8.13
2018-10-02T08:46:16.634Z,7.87
2018-10-02T08:48:45.184Z,7.40
2018-10-02T08:51:14.331Z,6.33
2018-10-02T08:53:43.094Z,5.93
2018-10-02T08:56:11.670Z,6.13
2018-10-02T08:58:40.254Z,5.93
2018-10-02T09:01:09.541Z,5.57
2018-10-02T09:03:38.154Z,5.67
2018-10-02T09:06:06.798Z,5.93
2018-10-02T09:08:35.364Z,5.37
2018-10-02T09:11:04.044Z,5.53
2018-10-02T09:13:32.593Z,5.83
2018-10-02T09:16:01.901Z,5.53
2018-10-02T09:18:30.332Z,5.30
2018-10-02T09:20:58.998Z,5.73
2018-10-02T09:23:27.635Z,5.33
2018-10-02T09:25:56.324Z,5.57
2018-10-02T09:28:24.877Z,5.20
2018-10-02T09:30:58.762Z,5.50
2018-10-02T09:33:33.245Z,5.93
2018-10-02T09:36:07.103Z,6.03
2018-10-02T09:38:40.884Z,5.87
2018-10-02T09:41:14.729Z,5.17
2018-10-02T09:43:48.679Z,5.97
2018-10-02T09:46:17.184Z,5.27
2018-10-02T09:48:46.027Z,5.73
2018-10-02T09:51:14.535Z,5.60
2018-10-02T09:53:43.120Z,6.03
2018-10-02T09:56:11.672Z,5.37
2018-10-02T09:58:40.295Z,6.53
2018-10-02T10:01:14.169Z,5.80
2018-10-02T10:03:42.841Z,6.37
2018-10-02T10:06:11.437Z,6.33
2018-10-02T10:08:40.033Z,5.33
2018-10-02T10:11:08.645Z,5.47
2018-10-02T10:13:37.194Z,4.93
2018-10-02T10:16:06.575Z,3.83
2018-10-02T10:18:35.184Z,4.27
2018-10-02T10:21:03.849Z,4.77
2018-10-02T10:23:32.463Z,4.00
2018-10-02T10:26:01.042Z,3.70
2018-10-02T10:28:29.581Z,4.23
2018-10-02T10:30:58.172Z,3.60
2018-10-02T10:33:26.755Z,3.67
2018-10-02T10:35:55.447Z,4.33
2018-10-02T10:38:24.020Z,4.30
2018-10-02T10:40:53.246Z,3.43
2018-10-02T10:43:21.908Z,3.70
2018-10-02T10:45:50.550Z,3.53
2018-10-02T10:48:19.400Z,3.60
2018-10-02T10:50:48.036Z,3.63
2018-10-02T10:53:16.644Z,3.80
2018-10-02T10:55:45.259Z,3.37
2018-10-02T10:58:13.909Z,4.03
2018-10-02T11:00:42.443Z,3.73
2018-10-02T11:03:11.163Z,4.10
2018-10-02T11:05:39.853Z,3.70
2018-10-02T11:08:08.389Z,3.43
2018-10-02T11:10:36.987Z,3.17
2018-10-02T11:13:05.576Z,3.67
2018-10-02T11:15:34.937Z,3.30
2018-10-02T11:18:03.593Z,3.43
2018-10-02T11:20:33.819Z,3.10
2018-10-02T11:23:02.578Z,3.03
2018-10-02T11:25:31.335Z,3.60
2018-10-02T11:28:00.038Z,3.60
2018-10-02T11:30:28.653Z,4.33
2018-10-02T11:32:57.254Z,3.67
2018-10-02T11:35:26.081Z,3.87
2018-10-02T11:37:54.716Z,3.73
2018-10-02T11:40:23.361Z,3.60
2018-10-02T11:42:51.984Z,3.93
2018-10-02T11:45:20.645Z,4.20
2018-10-02T11:47:49.310Z,5.00
2018-10-02T11:50:17.930Z,3.90
2018-10-02T11:52:46.525Z,4.20
2018-10-02T11:55:15.937Z,4.60
2018-10-02T11:57:44.698Z,4.83
2018-10-02T12:00:13.440Z,4.73
2018-10-02T12:02:42.208Z,4.00
2018-10-02T12:05:10.819Z,4.70
2018-10-02T12:07:39.413Z,4.53
2018-10-02T12:10:08.047Z,4.80
2018-10-02T12:12:37.426Z,3.47
2018-10-02T12:15:06.186Z,3.23
2018-10-02T12:17:34.822Z,3.80
2018-10-02T12:20:03.732Z,4.13
2018-10-02T12:22:32.197Z,3.93
2018-10-02T12:25:00.759Z,3.03
2018-10-02T12:27:29.425Z,3.10
2018-10-02T12:29:57.978Z,4.03
2018-10-02T12:32:26.529Z,3.63
2018-10-02T12:34:55.112Z,3.53
2018-10-02T12:37:23.664Z,9.70
2018-10-02T12:39:52.308Z,12.17
2018-10-02T12:42:21.038Z,9.03
2018-10-02T12:44:49.845Z,15.80
2018-10-02T12:47:18.420Z,1.70
2018-10-02T12:49:47.092Z,2.07
2018-10-02T12:52:15.944Z,1.80
2018-10-02T12:54:44.561Z,2.20
2018-10-02T12:57:13.199Z,2.10
2018-10-02T12:59:41.774Z,2.03
2018-10-02T13:02:10.412Z,2.13
2018-10-02T13:04:38.996Z,2.37
2018-10-02T13:07:07.629Z,5.57
2018-10-02T13:09:36.627Z,12.23
2018-10-02T13:12:05.271Z,18.03
2018-10-02T13:14:33.888Z,11.00
2018-10-02T13:17:02.478Z,6.97
2018-10-02T13:19:31.685Z,10.90
2018-10-02T13:22:00.229Z,19.80
2018-10-02T13:24:28.900Z,4.97
2018-10-02T13:26:57.541Z,13.23
2018-10-02T13:29:26.136Z,17.20
2018-10-02T13:31:54.804Z,16.33
2018-10-02T13:34:23.426Z,16.03
2018-10-02T13:36:52.168Z,13.80
2018-10-02T13:39:20.794Z,20.77
2018-10-02T13:41:49.387Z,19.60
2018-10-02T13:44:17.940Z,7.93
2018-10-02T13:46:46.720Z,14.87
2018-10-02T13:49:15.367Z,11.33
2018-10-02T13:51:44.975Z,10.90
2018-10-02T13:54:13.722Z,4.27
2018-10-02T13:56:42.887Z,5.40
2018-10-02T13:59:11.536Z,5.53
2018-10-02T14:01:40.292Z,6.10
2018-10-02T14:04:09.057Z,6.40
2018-10-02T14:06:38.016Z,14.87
2018-10-02T14:09:08.271Z,6.90
2018-10-02T14:11:37.027Z,3.73
2018-10-02T14:14:05.697Z,1.90
2018-10-02T14:16:34.367Z,2.00
2018-10-02T14:19:03.017Z,1.77
2018-10-02T14:21:31.720Z,4.63
2018-10-02T14:24:02.611Z,2.80
2018-10-02T14:26:31.246Z,6.70
2018-10-02T14:28:59.933Z,5.80
2018-10-02T14:31:28.547Z,5.80
2018-10-02T14:33:57.223Z,6.03
2018-10-02T14:36:25.884Z,6.40
2018-10-02T14:38:54.607Z,5.73
2018-10-02T14:41:23.217Z,6.33
2018-10-02T14:43:51.829Z,6.00
2018-10-02T14:46:20.458Z,6.27
2018-10-02T14:48:49.072Z,5.60
2018-10-02T14:51:17.758Z,5.13
2018-10-02T14:53:46.392Z,5.27
2018-10-02T14:56:15.253Z,5.80
2018-10-02T14:58:43.929Z,5.80
2018-10-02T15:01:13.319Z,5.13
2018-10-02T15:03:41.985Z,5.30
2018-10-02T15:06:10.738Z,4.80
2018-10-02T15:08:39.504Z,4.70
2018-10-02T15:11:08.107Z,4.10
2018-10-02T15:13:36.835Z,4.20
2018-10-02T15:16:05.866Z,5.17
2018-10-02T15:18:34.599Z,5.33
2018-10-02T15:21:03.226Z,5.33
2018-10-02T15:23:31.845Z,5.10
2018-10-02T15:26:00.620Z,5.17
2018-10-02T15:28:29.186Z,5.30
2018-10-02T15:30:57.896Z,5.20
2018-10-02T15:33:26.529Z,6.00
2018-10-02T15:35:55.194Z,5.53
2018-10-02T15:38:23.780Z,5.53
2018-10-02T15:40:53.179Z,5.37
2018-10-02T15:43:21.886Z,5.67
2018-10-02T15:45:50.487Z,5.60
2018-10-02T15:48:19.084Z,5.03
2018-10-02T15:50:47.773Z,5.70
2018-10-02T15:53:16.435Z,6.10
2018-10-02T15:55:45.140Z,5.77
2018-10-02T15:58:13.878Z,6.60
2018-10-02T16:00:42.432Z,6.70
2018-10-02T16:03:11.078Z,5.93
2018-10-02T16:05:39.692Z,5.23
2018-10-02T16:08:08.364Z,4.70
2018-10-02T16:10:36.990Z,5.20
2018-10-02T16:13:05.835Z,5.33
2018-10-02T16:15:34.585Z,5.07
2018-10-02T16:18:03.280Z,5.33
2018-10-02T16:20:31.877Z,5.10
2018-10-02T16:23:00.490Z,5.50
2018-10-02T16:25:29.692Z,4.47
2018-10-02T16:27:58.318Z,4.17
2018-10-02T16:30:26.999Z,3.93
2018-10-02T16:32:55.746Z,4.70
2018-10-02T16:35:24.331Z,5.00
2018-10-02T16:37:52.989Z,4.77
2018-10-02T16:40:21.632Z,5.13
2018-10-02T16:42:50.277Z,5.27
2018-10-02T16:45:18.942Z,4.27
2018-10-02T16:47:47.605Z,5.03
2018-10-02T16:50:16.313Z,5.27
2018-10-02T16:52:44.997Z,4.60
2018-10-02T16:55:13.624Z,4.40
2018-10-02T16:57:42.260Z,5.30
2018-10-02T17:00:10.944Z,5.53
2018-10-02T17:02:39.665Z,5.70
2018-10-02T17:05:08.856Z,5.30
2018-10-02T17:07:37.583Z,5.90
2018-10-02T17:10:06.323Z,5.13
2018-10-02T17:12:35.083Z,5.30
2018-10-02T17:15:03.749Z,5.40
2018-10-02T17:17:32.334Z,5.43
2018-10-02T17:20:00.998Z,5.70
2018-10-02T17:22:29.801Z,5.57
2018-10-02T17:24:58.714Z,5.13
2018-10-02T17:27:27.475Z,5.40
2018-10-02T17:29:56.257Z,5.30
2018-10-02T17:32:25.039Z,5.40
2018-10-02T17:34:53.936Z,6.10
2018-10-02T17:37:22.734Z,6.10
2018-10-02T17:39:51.491Z,5.77
2018-10-02T17:42:20.247Z,5.23
2018-10-02T17:44:48.996Z,5.30
2018-10-02T17:47:17.702Z,5.63
2018-10-02T17:49:46.539Z,6.40
2018-10-02T17:52:15.130Z,6.17
2018-10-02T17:54:43.845Z,5.80
2018-10-02T17:57:12.662Z,6.97
2018-10-02T17:59:42.182Z,5.60
2018-10-02T18:02:11.089Z,5.93
2018-10-02T18:04:39.935Z,6.63
2018-10-02T18:07:08.637Z,6.30
2018-10-02T18:09:37.204Z,8.40
2018-10-02T18:12:06.010Z,7.00
2018-10-02T18:14:34.628Z,7.40
2018-10-02T18:17:03.498Z,7.83
2018-10-02T18:19:32.369Z,7.20
2018-10-02T18:22:01.109Z,6.37
2018-10-02T18:24:30.489Z,7.63
2018-10-02T18:26:59.131Z,7.07
2018-10-02T18:29:27.820Z,8.03
2018-10-02T18:31:57.114Z,7.73
2018-10-02T18:34:25.776Z,7.77
2018-10-02T18:36:54.454Z,7.37
2018-10-02T18:39:23.105Z,7.20
2018-10-02T18:41:51.831Z,7.07
2018-10-02T18:44:20.701Z,6.43
2018-10-02T18:46:49.353Z,7.70
2018-10-02T18:49:19.473Z,8.63
2018-10-02T18:51:48.001Z,7.70
2018-10-02T18:54:17.805Z,7.77
2018-10-02T18:56:46.487Z,8.30
2018-10-02T18:59:15.050Z,9.00
2018-10-02T19:01:44.019Z,8.80
2018-10-02T19:04:12.860Z,9.20
2018-10-02T19:06:41.620Z,8.90
2018-10-02T19:09:15.650Z,9.10
2018-10-02T19:11:49.719Z,8.77
2018-10-02T19:14:19.323Z,9.47
2018-10-02T19:16:47.982Z,9.33
2018-10-02T19:19:21.871Z,10.27
2018-10-02T19:21:50.474Z,9.80
2018-10-02T19:24:19.656Z,9.77
2018-10-02T19:26:48.343Z,7.20
2018-10-02T19:29:18.003Z,8.50
2018-10-02T19:31:52.107Z,7.20
2018-10-02T19:34:20.864Z,7.33
2018-10-02T19:36:49.905Z,7.70
2018-10-02T19:39:25.099Z,7.47
2018-10-02T19:41:54.106Z,7.73
2018-10-02T19:44:23.267Z,8.03
2018-10-02T19:46:53.360Z,8.37
2018-10-02T19:49:23.623Z,7.83
2018-10-02T19:51:57.758Z,6.93
2018-10-02T19:54:26.791Z,8.70
2018-10-02T19:56:55.765Z,8.53
2018-10-02T19:59:24.407Z,7.03
2018-10-02T20:01:53.515Z,7.00
2018-10-02T20:04:22.170Z,5.77
2018-10-02T20:06:50.725Z,5.80
2018-10-02T20:09:19.508Z,6.27
2018-10-02T20:11:48.856Z,6.17
2018-10-02T20:14:17.554Z,5.87
2018-10-02T20:16:46.238Z,6.20
2018-10-02T20:19:15.176Z,5.77
2018-10-02T20:21:43.929Z,6.47
2018-10-02T20:24:12.548Z,5.20
2018-10-02T20:26:41.272Z,5.20
2018-10-02T20:29:09.901Z,6.10
2018-10-02T20:31:41.188Z,6.10
2018-10-02T20:34:09.892Z,6.23
2018-10-02T20:36:39.061Z,6.23
2018-10-02T20:39:09.275Z,6.93
2018-10-02T20:41:37.917Z,7.07
2018-10-02T20:44:06.908Z,7.23
2018-10-02T20:46:35.682Z,6.23
2018-10-02T20:49:04.417Z,7.03
2018-10-02T20:51:33.097Z,7.20
2018-10-02T20:54:01.738Z,6.63
2018-10-02T20:56:31.136Z,7.00
2018-10-02T20:58:59.941Z,8.37
2018-10-02T21:01:29.201Z,6.33
2018-10-02T21:03:57.865Z,6.90
2018-10-02T21:06:26.733Z,6.33
2018-10-02T21:08:55.365Z,6.13
2018-10-02T21:11:23.948Z,6.50
2018-10-02T21:13:52.682Z,6.07
2018-10-02T21:16:21.435Z,6.33
2018-10-02T21:18:56.654Z,5.83
2018-10-02T21:21:25.294Z,5.97
2018-10-02T21:23:53.942Z,6.23
2018-10-02T21:26:22.780Z,5.57
2018-10-02T21:28:51.481Z,4.73
2018-10-02T21:31:20.139Z,5.73
2018-10-02T21:33:48.710Z,5.90
2018-10-02T21:36:17.691Z,6.20
2018-10-02T21:38:46.654Z,5.60
2018-10-02T21:41:15.521Z,5.80
2018-10-02T21:43:44.451Z,6.83
2018-10-02T21:46:13.018Z,6.47
2018-10-02T21:48:41.689Z,6.43
2018-10-02T21:51:10.362Z,5.63
2018-10-02T21:53:39.426Z,5.83
2018-10-02T21:56:08.232Z,6.63
2018-10-02T21:58:37.138Z,5.70
2018-10-02T22:01:06.533Z,5.40
2018-10-02T22:03:37.432Z,5.97
2018-10-02T22:06:06.223Z,6.00
2018-10-02T22:08:34.988Z,5.90
2018-10-02T22:11:03.785Z,6.07
2018-10-02T22:13:32.412Z,5.87
2018-10-02T22:16:01.333Z,5.90
2018-10-02T22:18:29.922Z,6.80
2018-10-02T22:20:58.845Z,5.83
2018-10-02T22:23:27.633Z,5.03
2018-10-02T22:25:56.220Z,5.77
2018-10-02T22:28:24.776Z,5.20
2018-10-02T22:30:53.617Z,5.13
2018-10-02T22:33:22.406Z,5.63
2018-10-02T22:35:50.919Z,5.77
2018-10-02T22:38:19.497Z,6.10
2018-10-02T22:40:48.381Z,5.00
2018-10-02T22:43:16.913Z,5.57
2018-10-02T22:45:45.489Z,5.50
2018-10-02T22:48:14.020Z,6.63
2018-10-02T22:50:42.705Z,5.57
2018-10-02T22:53:11.549Z,5.43
2018-10-02T22:55:40.116Z,5.93
2018-10-02T22:58:08.727Z,5.80
2018-10-02T23:00:37.320Z,5.53
2018-10-02T23:03:05.888Z,5.10
2018-10-02T23:05:34.450Z,5.27
2018-10-02T23:08:03.004Z,5.93
2018-10-02T23:10:31.621Z,5.80
2018-10-02T23:13:00.168Z,5.17
2018-10-02T23:15:29.035Z,5.07
2018-10-02T23:17:57.615Z,4.73
2018-10-02T23:20:26.261Z,5.90
2018-10-02T23:22:55.068Z,5.67
2018-10-02T23:25:23.615Z,6.07
2018-10-02T23:27:52.295Z,5.83
2018-10-02T23:30:20.960Z,6.73
2018-10-02T23:32:49.700Z,5.73
2018-10-02T23:35:18.205Z,5.27
2018-10-02T23:37:46.854Z,5.93
2018-10-02T23:40:15.398Z,5.57
2018-10-02T23:42:43.991Z,5.30
2018-10-02T23:45:12.533Z,6.07
2018-10-02T23:47:41.085Z,5.90
2018-10-02T23:50:09.629Z,5.97
2018-10-02T23:52:38.201Z,6.43
2018-10-02T23:55:06.749Z,5.83
2018-10-02T23:57:35.385Z,6.10
